Time;durP1;ratioP1;P1;durP2;ratioP2;P2;SDS_P1;SDS_P2;PMS_P1;PMS_P2;Temp;Humidity;BMP_temperature;BMP_pressure;BME280_temperature;BME280_humidity;BME280_pressure;Samples;Min_cycle;Max_cycle;Signal;HPM_P1;HPM_P2
2022/05/16 00:03:45;;;;;;;3.00;1.40;;;;;;;18.58;49.21;97110.91;10508947;28;20426;-51
2022/05/16 00:09:07;;;;;;;1.55;1.10;;;;;;;18.58;49.40;97105.50;10516177;28;20355;-53
2022/05/16 00:14:26;;;;;;;1.52;1.20;;;;;;;18.58;49.33;97105.50;10506862;28;20142;-50
2022/05/16 00:19:46;;;;;;;1.48;1.20;;;;;;;18.57;49.21;97114.72;10509897;28;20039;-50
2022/05/16 00:25:07;;;;;;;2.00;1.30;;;;;;;18.58;49.27;97117.13;10513932;28;20102;-50
2022/05/16 00:30:27;;;;;;;1.90;1.30;;;;;;;18.56;49.21;97108.53;10501110;28;20048;-51
2022/05/16 00:35:47;;;;;;;1.70;1.17;;;;;;;18.57;49.27;97118.19;10492207;28;20102;-51
2022/05/16 00:41:08;;;;;;;1.73;1.17;;;;;;;18.57;49.15;97123.59;10519626;28;20044;-50
2022/05/16 00:46:31;;;;;;;2.35;1.20;;;;;;;18.58;49.25;97121.69;10499865;28;20518;-51
2022/05/16 00:52:15;;;;;;;1.75;1.10;;;;;;;18.56;49.20;97122.03;10520280;28;20399;-51
2022/05/16 00:57:38;;;;;;;1.30;1.20;;;;;;;18.56;49.10;97123.91;10493900;28;20052;-51
2022/05/16 01:08:43;;;;;;;1.98;1.13;;;;;;;18.58;49.14;97110.91;10494030;28;20053;-51
2022/05/16 01:14:04;;;;;;;1.58;1.20;;;;;;;18.57;49.19;97112.03;10505324;28;20408;-51
2022/05/16 01:19:23;;;;;;;2.78;1.40;;;;;;;18.57;48.91;97110.09;10491768;28;20044;-50
2022/05/16 01:24:42;;;;;;;1.75;1.33;;;;;;;18.56;48.96;97105.00;10508828;28;20511;-50
2022/05/16 01:30:03;;;;;;;1.40;1.10;;;;;;;18.56;49.13;97099.63;10509057;28;20403;-50
2022/05/16 01:35:24;;;;;;;1.58;1.17;;;;;;;18.57;48.96;97106.63;10527763;28;20501;-50
2022/05/16 01:41:11;;;;;;;2.42;1.25;;;;;;;18.56;49.15;97102.31;10490920;28;20048;-51
2022/05/16 01:46:37;;;;;;;1.80;1.20;;;;;;;18.55;48.90;97088.03;10509900;28;20055;-50
2022/05/16 01:51:57;;;;;;;1.55;1.00;;;;;;;18.57;48.90;97085.03;10518316;28;20052;-51
2022/05/16 01:57:16;;;;;;;1.73;1.20;;;;;;;18.57;49.02;97093.13;10538665;28;20047;-50
2022/05/16 02:02:36;;;;;;;1.42;1.05;;;;;;;18.56;48.98;97076.16;10526652;28;20060;-51
2022/05/16 02:07:56;;;;;;;1.35;1.10;;;;;;;18.55;48.79;97069.16;10522451;28;20048;-50
2022/05/16 02:13:16;;;;;;;1.48;1.15;;;;;;;18.56;48.92;97075.34;10514926;28;20106;-51
2022/05/16 02:18:36;;;;;;;1.10;1.00;;;;;;;18.56;48.83;97078.03;10531556;28;20084;-50
2022/05/16 02:29:34;;;;;;;1.80;1.23;;;;;;;18.54;48.70;97056.78;10526767;28;20044;-51
2022/05/16 02:34:55;;;;;;;1.00;0.90;;;;;;;18.55;48.80;97069.16;10537359;28;20055;-50
2022/05/16 02:40:15;;;;;;;1.95;1.13;;;;;;;18.55;48.73;97073.75;10535422;28;20044;-51
2022/05/16 02:45:35;;;;;;;1.88;1.20;;;;;;;18.55;48.77;97079.16;10516624;28;20052;-50
2022/05/16 02:50:54;;;;;;;1.10;1.00;;;;;;;18.55;48.90;97073.75;10511920;28;20694;-52
2022/05/16 02:56:14;;;;;;;1.30;1.00;;;;;;;18.55;48.50;97084.56;10496838;28;20503;-50
2022/05/16 03:01:34;;;;;;;1.60;1.00;;;;;;;18.54;48.79;97078.38;10537629;28;20048;-52
2022/05/16 03:06:54;;;;;;;1.50;1.30;;;;;;;18.55;48.66;97079.16;10529657;28;20040;-50
2022/05/16 03:12:14;;;;;;;2.92;1.10;;;;;;;18.55;48.70;97076.47;10504544;28;20049;-51
2022/05/16 03:17:33;;;;;;;1.23;1.05;;;;;;;18.55;48.56;97089.94;10513798;28;20052;-51
2022/05/16 03:22:53;;;;;;;1.33;1.10;;;;;;;18.54;48.71;97094.56;10521959;28;20052;-51
2022/05/16 03:28:12;;;;;;;1.27;1.15;;;;;;;18.54;48.59;97086.47;10517324;28;20487;-48
2022/05/16 03:33:32;;;;;;;0.88;0.88;;;;;;;18.54;48.67;97082.94;10532588;28;20040;-47
2022/05/16 03:44:37;;;;;;;1.90;1.05;;;;;;;18.55;48.99;97084.56;10479922;28;20510;-48
2022/05/16 03:49:56;;;;;;;2.15;1.13;;;;;;;18.55;48.95;97085.34;10524034;28;20051;-47
2022/05/16 03:55:16;;;;;;;1.73;1.05;;;;;;;18.55;48.95;97079.16;10530809;28;20414;-48
2022/05/16 04:00:36;;;;;;;1.20;1.00;;;;;;;18.57;49.04;97082.34;10521216;28;20051;-48
2022/05/16 04:05:55;;;;;;;2.20;1.15;;;;;;;18.56;49.17;97086.13;10524989;28;20637;-48
2022/05/16 04:11:16;;;;;;;1.42;1.10;;;;;;;18.54;49.02;97083.75;10518187;28;20037;-48
2022/05/16 04:16:37;;;;;;;1.15;0.93;;;;;;;18.55;49.04;97074.53;10501204;28;20051;-51
2022/05/16 04:21:57;;;;;;;1.30;0.95;;;;;;;18.55;49.04;97077.25;10497715;28;20060;-50
2022/05/16 04:27:16;;;;;;;1.10;1.00;;;;;;;18.55;49.15;97090.75;10513094;28;20044;-49
2022/05/16 04:32:36;;;;;;;1.00;0.90;;;;;;;18.55;49.05;97084.56;10504224;28;20102;-48
2022/05/16 04:37:56;;;;;;;1.25;1.00;;;;;;;18.55;48.86;97092.66;10504359;28;20106;-48
2022/05/16 04:43:16;;;;;;;2.45;0.90;;;;;;;18.56;48.88;97091.53;10499590;28;20055;-48
2022/05/16 04:48:35;;;;;;;1.40;1.20;;;;;;;18.57;49.29;97085.03;10514225;28;20475;-48
2022/05/16 04:53:55;;;;;;;1.27;1.10;;;;;;;18.55;49.53;97079.16;10528076;28;20063;-47
2022/05/16 04:59:15;;;;;;;1.63;1.17;;;;;;;18.56;49.44;97086.13;10517745;28;20048;-48
2022/05/16 05:04:35;;;;;;;1.30;1.02;;;;;;;18.57;49.56;97090.44;10517757;28;20052;-50
2022/05/16 05:15:34;;;;;;;1.33;1.20;;;;;;;18.55;49.47;97085.34;10513716;28;20049;-48
2022/05/16 05:20:54;;;;;;;1.10;1.00;;;;;;;18.56;49.44;97091.53;10497036;28;20049;-48
2022/05/16 05:26:13;;;;;;;2.78;1.20;;;;;;;18.56;49.54;97096.91;10504916;28;20062;-47
2022/05/16 05:31:33;;;;;;;1.20;1.10;;;;;;;18.56;49.61;97096.91;10492503;28;20051;-48
2022/05/16 05:36:53;;;;;;;5.00;2.00;;;;;;;18.56;48.92;97102.31;10501335;28;20479;-50
2022/05/16 05:42:13;;;;;;;8.10;2.28;;;;;;;18.44;47.98;97100.19;10524322;28;20052;-48
2022/05/16 05:47:32;;;;;;;3.78;2.00;;;;;;;18.40;47.90;97110.00;10520078;28;20495;-49
2022/05/16 05:52:51;;;;;;;4.32;2.28;;;;;;;18.38;47.77;97120.31;10508479;28;20051;-48
2022/05/16 05:58:10;;;;;;;5.10;2.30;;;;;;;18.36;47.90;97117.13;10484083;28;20060;-49
2022/05/16 06:03:30;;;;;;;5.95;2.30;;;;;;;18.35;47.85;97118.25;10502968;28;20052;-50
2022/05/16 06:08:49;;;;;;;6.72;2.50;;;;;;;18.34;47.81;97116.66;10490430;28;20060;-48
2022/05/16 06:14:09;;;;;;;4.00;2.47;;;;;;;18.35;47.72;97131.75;10483499;28;20061;-48
2022/05/16 06:19:28;;;;;;;5.75;2.53;;;;;;;18.33;47.62;97137.44;10492072;28;20045;-48
2022/05/16 06:30:26;;;;;;;7.40;2.77;;;;;;;18.33;47.40;97142.03;10495093;28;20045;-47
2022/05/16 06:35:46;;;;;;;4.65;2.30;;;;;;;18.32;47.24;97135.81;10496472;28;20303;-48
2022/05/16 06:41:05;;;;;;;5.63;2.55;;;;;;;18.31;47.11;97120.75;10493350;28;20056;-48
2022/05/16 06:46:25;;;;;;;5.65;2.58;;;;;;;18.32;47.28;97125.03;10520237;28;20056;-48
2022/05/16 06:51:44;;;;;;;5.65;2.60;;;;;;;18.32;47.11;97130.44;10527137;28;20036;-49
2022/05/16 06:57:04;;;;;;;3.50;2.10;;;;;;;18.33;46.93;97131.25;10538370;28;20078;-49
2022/05/16 07:02:23;;;;;;;5.75;2.80;;;;;;;18.33;47.15;97132.03;10535605;28;20051;-51
2022/05/16 07:07:42;;;;;;;4.13;2.40;;;;;;;18.34;47.11;97116.66;10550553;28;20040;-48
2022/05/16 07:13:02;;;;;;;6.63;2.25;;;;;;;18.34;47.28;97106.63;10543253;28;20047;-48
2022/05/16 07:18:23;;;;;;;6.57;2.42;;;;;;;18.33;47.12;97118.56;10549242;28;20044;-47
2022/05/16 07:23:42;;;;;;;6.32;2.50;;;;;;;18.35;47.25;97118.25;10540325;28;20101;-48
2022/05/16 07:29:02;;;;;;;3.25;2.10;;;;;;;18.37;47.07;97127.63;10553551;28;20039;-47
2022/05/16 07:34:22;;;;;;;3.17;2.10;;;;;;;18.38;47.47;97128.41;10539887;28;20048;-48
2022/05/16 07:39:41;;;;;;;4.43;2.05;;;;;;;18.39;47.63;97121.91;10536970;28;20044;-48
2022/05/16 07:45:01;;;;;;;3.47;2.10;;;;;;;18.40;47.62;97137.00;10517534;28;20462;-51
2022/05/16 07:50:20;;;;;;;5.18;2.25;;;;;;;18.40;47.51;97133.50;10498288;28;20056;-48
2022/05/16 07:55:45;;;;;;;5.35;2.38;;;;;;;18.41;47.11;97124.31;10518481;28;20060;-50
2022/05/16 08:01:05;;;;;;;3.55;2.03;;;;;;;18.42;47.06;97117.81;10525719;28;20056;-50
2022/05/16 08:06:27;;;;;;;3.05;2.00;;;;;;;18.40;46.93;97109.22;10517069;28;20064;-48
2022/05/16 08:11:46;;;;;;;2.90;1.90;;;;;;;18.41;47.03;97116.22;10532968;28;20048;-48
2022/05/16 08:17:05;;;;;;;2.47;1.80;;;;;;;18.41;47.08;97100.03;10524253;28;20063;-49
2022/05/16 08:22:30;;;;;;;5.13;2.20;;;;;;;18.41;47.17;97117.00;10510152;28;20055;-48
2022/05/16 08:27:50;;;;;;;3.75;1.98;;;;;;;18.42;47.10;97112.41;10504309;28;20452;-48
2022/05/16 08:33:10;;;;;;;3.30;1.75;;;;;;;18.43;47.41;97119.41;10549553;28;20089;-48
2022/05/16 08:44:15;;;;;;;4.10;1.83;;;;;;;18.45;47.42;97119.91;10515025;28;20090;-47
2022/05/16 08:49:44;;;;;;;4.30;1.83;;;;;;;18.45;47.44;97111.81;10530711;28;20092;-48
2022/05/16 08:55:10;;;;;;;3.00;1.90;;;;;;;18.46;47.48;97105.28;10524708;28;20041;-50
2022/05/16 09:00:47;;;;;;;3.28;2.13;;;;;;;18.47;47.43;97109.59;10530458;28;20496;-48
2022/05/16 09:06:13;;;;;;;2.75;1.92;;;;;;;18.47;47.50;97110.38;10508134;28;20056;-49
2022/05/16 09:12:00;;;;;;;3.22;1.90;;;;;;;18.48;47.64;97111.16;10518570;28;20039;-48
2022/05/16 09:17:22;;;;;;;2.50;1.73;;;;;;;18.49;47.68;97115.47;10532809;28;20051;-49
2022/05/16 09:22:54;;;;;;;3.83;2.10;;;;;;;18.50;47.58;97128.66;10524213;28;20091;-48
2022/05/16 09:33:58;;;;;;;2.53;2.05;;;;;;;18.52;47.77;97104.03;10520154;28;20097;-48
2022/05/16 09:39:20;;;;;;;2.90;1.77;;;;;;;18.52;47.51;97104.88;10544740;28;20070;-48
2022/05/16 09:44:48;;;;;;;3.45;1.90;;;;;;;18.53;47.65;97106.44;10529416;28;20060;-50
2022/05/16 09:50:14;;;;;;;;;;;;;;;18.53;47.63;97105.66;10460929;28;20045;-49
2022/05/16 09:55:43;;;;;;;3.33;1.88;;;;;;;18.53;47.51;97089.47;10476665;28;20367;-48
2022/05/16 10:01:08;;;;;;;2.60;1.75;;;;;;;18.52;47.55;97095.94;10470997;28;20068;-50
2022/05/16 10:06:34;;;;;;;2.95;1.77;;;;;;;18.53;47.47;97084.06;10471477;28;20044;-47
2022/05/16 10:11:53;;;;;;;2.78;1.60;;;;;;;18.54;47.53;97082.94;10474173;28;20411;-48
2022/05/16 10:17:18;;;;;;;2.50;1.52;;;;;;;18.53;47.59;97076.75;10468469;28;20048;-51
2022/05/16 10:22:38;;;;;;;4.22;2.00;;;;;;;18.55;47.71;97065.66;10449979;28;20058;-49
2022/05/16 10:27:58;;;;;;;2.42;1.85;;;;;;;18.54;47.65;97075.66;10455126;28;20415;-47
2022/05/16 10:33:27;;;;;;;3.83;1.85;;;;;;;18.54;47.66;97072.97;10472132;28;20041;-48
2022/05/16 10:38:47;;;;;;;;;;;;;;;18.55;47.79;97068.38;10465343;28;20044;-51
2022/05/16 10:44:31;;;;;;;3.45;1.60;;;;;;;18.55;47.62;97068.38;10468158;28;19921;-47
2022/05/16 10:50:26;;;;;;;3.42;1.65;;;;;;;18.55;47.73;97063.75;10490032;28;20040;-48
2022/05/16 10:56:03;;;;;;;3.03;1.70;;;;;;;18.57;47.90;97060.75;10515857;28;20044;-48
2022/05/16 11:01:52;;;;;;;2.33;1.70;;;;;;;18.58;48.00;97062.31;10491256;28;20048;-48
2022/05/16 11:07:17;;;;;;;2.75;1.90;;;;;;;18.63;47.96;97058.72;10494134;28;20055;-48
2022/05/16 11:12:47;;;;;;;2.88;2.00;;;;;;;18.63;47.88;97048.72;10536148;28;20040;-48
2022/05/16 11:18:33;;;;;;;4.43;1.90;;;;;;;18.64;47.70;97028.72;10523080;28;20060;-48
2022/05/16 11:24:09;;;;;;;2.92;1.90;;;;;;;18.64;48.00;97026.03;10522310;28;20052;-49
2022/05/16 11:29:32;;;;;;;2.80;1.70;;;;;;;18.62;48.08;97022.84;10523028;28;20574;-51
2022/05/16 11:35:03;;;;;;;2.78;1.80;;;;;;;18.63;48.19;97021.72;10496501;28;20659;-48
2022/05/16 11:40:38;;;;;;;2.88;1.95;;;;;;;18.62;48.26;97020.16;10514309;28;20048;-51
2022/05/16 11:46:28;;;;;;;3.22;1.98;;;;;;;18.65;48.22;97022.22;10517842;28;20063;-49
2022/05/16 11:52:02;;;;;;;2.50;1.92;;;;;;;18.66;48.14;97007.63;10497064;28;20055;-48
2022/05/16 12:03:06;;;;;;;2.83;1.90;;;;;;;18.73;47.69;97015.25;10516269;28;20053;-48
2022/05/16 12:08:25;;;;;;;2.50;1.80;;;;;;;18.73;47.43;97005.25;10523793;28;20048;-48
2022/05/16 12:14:01;;;;;;;3.00;1.63;;;;;;;18.73;46.88;97005.25;10536476;28;20063;-49
2022/05/16 12:19:28;;;;;;;2.55;1.75;;;;;;;18.77;46.60;97000.00;10512295;28;20458;-48
2022/05/16 12:24:53;;;;;;;3.33;1.80;;;;;;;18.78;46.90;96997.00;10511336;28;20044;-47
2022/05/16 12:30:41;;;;;;;3.53;1.67;;;;;;;18.87;47.38;96990.84;10528864;28;20044;-47
2022/05/16 12:36:01;;;;;;;5.33;2.03;;;;;;;18.87;48.56;96994.34;10507585;28;20098;-47
2022/05/16 12:41:51;;;;;;;5.88;3.47;;;;;;;18.84;50.83;96981.50;10512377;28;20045;-47
2022/05/16 12:47:33;;;;;;;8.63;3.55;;;;;;;18.87;51.41;96975.44;10516471;28;20058;-48
2022/05/16 12:53:12;;;;;;;7.93;3.95;;;;;;;18.85;51.88;96969.56;10522331;28;20051;-48
2022/05/16 12:58:40;;;;;;;7.60;3.13;;;;;;;18.86;51.62;96973.09;10508984;28;20087;-48
2022/05/16 13:04:06;;;;;;;5.32;2.78;;;;;;;18.85;50.95;96963.38;10549301;28;20043;-47
2022/05/16 13:09:29;;;;;;;4.65;2.28;;;;;;;18.89;50.22;96956.25;10526869;28;20040;-48
2022/05/16 13:14:56;;;;;;;5.18;2.33;;;;;;;18.94;49.35;96942.59;10517877;28;20048;-47
2022/05/16 13:20:18;;;;;;;3.30;2.20;;;;;;;18.96;49.17;96941.19;10529112;28;20048;-48
2022/05/16 13:29:21;;;;;;;4.85;2.13;;;;;;;19.00;48.61;96943.25;10524554;28;20066;-48
2022/05/16 13:31:33;;;;;;;3.83;2.00;;;;;;;18.99;48.74;96925.44;10514500;28;20475;-48
2022/05/16 13:36:53;;;;;;;3.05;2.08;;;;;;;18.99;48.54;96928.94;10503720;28;20060;-50
2022/05/16 13:42:13;;;;;;;3.78;2.17;;;;;;;18.99;48.65;96923.53;10534331;28;20047;-48
2022/05/16 13:47:32;;;;;;;3.63;2.00;;;;;;;19.01;48.34;96907.81;10536425;28;20056;-47
2022/05/16 13:52:52;;;;;;;3.95;1.92;;;;;;;19.05;48.51;96906.09;10542817;28;20098;-47
2022/05/16 13:58:13;;;;;;;2.72;1.77;;;;;;;19.05;48.51;96910.69;10529991;28;20056;-47
2022/05/16 14:03:34;;;;;;;2.65;1.90;;;;;;;19.08;48.41;96900.03;10511460;28;20097;-48
2022/05/16 14:09:02;;;;;;;2.97;1.77;;;;;;;19.10;48.42;96895.13;10548046;28;20554;-47
2022/05/16 14:14:25;;;;;;;4.15;1.85;;;;;;;19.09;48.22;96896.25;10538804;28;20048;-48
2022/05/16 14:19:45;;;;;;;4.80;2.00;;;;;;;19.12;47.67;96882.09;10545947;28;20097;-48
2022/05/16 14:25:09;;;;;;;3.67;2.00;;;;;;;19.19;47.55;96889.72;10551868;28;20445;-48
2022/05/16 14:30:31;;;;;;;2.55;1.95;;;;;;;19.16;47.82;96879.53;10541437;28;20051;-50
2022/05/16 14:36:07;;;;;;;2.45;1.90;;;;;;;19.18;47.58;96871.91;10535816;28;20044;-48
2022/05/16 14:41:27;;;;;;;3.17;2.00;;;;;;;19.20;47.86;96868.91;10536742;28;20052;-51
2022/05/16 14:47:13;;;;;;;3.42;1.80;;;;;;;19.21;47.84;96865.06;10533861;28;20056;-49
2022/05/16 14:52:33;;;;;;;3.03;1.90;;;;;;;19.26;47.75;96859.53;10537046;28;20044;-48
2022/05/16 14:57:53;;;;;;;4.07;2.03;;;;;;;19.30;47.71;96846.97;10528647;28;20056;-48
2022/05/16 15:08:53;;;;;;;2.85;1.98;;;;;;;19.41;47.64;96850.91;10520459;28;20422;-48
2022/05/16 15:14:13;;;;;;;4.05;2.00;;;;;;;19.42;47.93;96852.47;10516194;28;20685;-47
2022/05/16 15:19:34;;;;;;;2.97;2.10;;;;;;;19.45;47.52;96854.56;10541380;28;20051;-48
2022/05/16 15:24:56;;;;;;;4.22;1.90;;;;;;;19.46;47.58;96845.31;10519075;28;20073;-50
2022/05/16 15:30:15;;;;;;;3.05;1.80;;;;;;;19.43;47.77;96848.69;10536462;28;20044;-48
2022/05/16 15:35:35;;;;;;;4.28;2.30;;;;;;;19.37;47.95;96839.16;10530392;28;20048;-47
2022/05/16 15:40:55;;;;;;;3.35;1.98;;;;;;;19.37;47.78;96844.56;10525345;28;20385;-47
2022/05/16 15:46:14;;;;;;;3.17;1.83;;;;;;;19.35;47.86;96833.28;10517951;28;20048;-50
2022/05/16 15:51:34;;;;;;;2.05;1.70;;;;;;;19.31;48.08;96833.13;10508978;28;20052;-48
2022/05/16 15:56:54;;;;;;;3.17;2.00;;;;;;;19.24;48.16;96826.63;10510305;28;20055;-48
2022/05/16 16:02:16;;;;;;;3.70;2.00;;;;;;;19.20;48.42;96828.41;10528184;28;20051;-50
2022/05/16 16:13:16;;;;;;;2.67;1.98;;;;;;;19.16;48.57;96814.72;10507261;28;20052;-49
2022/05/16 16:18:35;;;;;;;2.28;1.95;;;;;;;19.13;48.62;96813.47;10548274;28;20032;-48
2022/05/16 16:23:55;;;;;;;2.20;1.90;;;;;;;19.13;48.66;96812.66;10516562;28;20061;-49
2022/05/16 16:29:14;;;;;;;2.63;1.75;;;;;;;19.12;48.84;96817.28;10507446;28;20049;-48
2022/05/16 16:34:34;;;;;;;2.08;1.65;;;;;;;19.15;48.95;96813.13;10540751;28;20093;-48
2022/05/16 16:39:54;;;;;;;2.53;1.67;;;;;;;19.16;48.86;96814.72;10529128;28;20048;-48
2022/05/16 16:45:13;;;;;;;3.42;1.90;;;;;;;19.16;48.85;96815.53;10517046;28;20056;-48
2022/05/16 16:50:34;;;;;;;2.15;1.83;;;;;;;19.16;48.67;96823.63;10526090;28;20461;-48
2022/05/16 17:01:48;;;;;;;3.78;1.67;;;;;;;19.20;48.90;96809.50;10478912;28;20423;-49
2022/05/16 17:07:09;;;;;;;2.33;1.90;;;;;;;19.21;49.00;96821.88;10516674;28;20597;-48
2022/05/16 17:12:28;;;;;;;2.28;1.80;;;;;;;19.17;48.90;96819.81;10512620;28;20048;-48
2022/05/16 17:17:49;;;;;;;2.08;1.73;;;;;;;19.19;48.91;96834.91;10511036;28;20059;-48
2022/05/16 17:23:13;;;;;;;2.97;1.90;;;;;;;19.20;49.11;96839.19;10507630;28;20048;-49
2022/05/16 17:28:33;;;;;;;3.83;2.00;;;;;;;19.19;49.17;96833.00;10515207;28;20049;-48
2022/05/16 17:33:52;;;;;;;2.92;1.90;;;;;;;19.18;49.35;96836.81;10493770;28;20171;-48
2022/05/16 17:39:13;;;;;;;2.58;1.90;;;;;;;19.19;49.21;96843.81;10498705;28;20060;-47
2022/05/16 17:44:34;;;;;;;2.03;1.83;;;;;;;19.19;49.49;96864.59;10495606;28;20045;-51
2022/05/16 17:49:53;;;;;;;2.47;1.83;;;;;;;19.16;49.65;96861.44;10538893;28;20036;-48
2022/05/16 17:55:14;;;;;;;3.53;1.88;;;;;;;19.15;49.53;96857.16;10525561;28;20052;-49
2022/05/16 18:00:34;;;;;;;2.42;2.00;;;;;;;19.14;49.64;96863.66;10507565;28;20067;-48
2022/05/16 18:05:53;;;;;;;3.22;2.03;;;;;;;19.14;49.97;96858.25;10540999;28;20054;-48
2022/05/16 18:16:52;;;;;;;3.17;2.23;;;;;;;19.12;50.79;96882.09;10545239;28;20637;-49
2022/05/16 18:22:19;;;;;;;4.00;2.38;;;;;;;19.13;50.97;96899.06;10515604;28;20294;-48
2022/05/16 18:27:41;;;;;;;3.38;2.22;;;;;;;19.11;51.24;96902.13;10511527;28;20051;-50
2022/05/16 18:33:04;;;;;;;4.15;2.30;;;;;;;19.11;51.41;96896.72;10517182;28;20108;-48
2022/05/16 18:38:23;;;;;;;2.65;2.08;;;;;;;19.11;51.50;96906.69;10506707;28;20062;-49
2022/05/16 18:55:00;;;;;;;2.10;1.90;;;;;;;19.10;52.43;96981.53;10526387;28;20093;-49
2022/05/16 19:00:19;;;;;;;2.72;2.00;;;;;;;19.10;52.30;96981.53;10511972;28;20049;-49
2022/05/16 19:05:39;;;;;;;5.63;2.42;;;;;;;19.10;52.42;96994.25;10522127;28;20048;-48
2022/05/16 19:11:05;;;;;;;5.60;2.55;;;;;;;19.11;52.87;96996.63;10531745;28;20044;-47
2022/05/16 19:16:25;;;;;;;3.20;2.53;;;;;;;19.09;53.31;96982.66;10516698;28;20546;-49
2022/05/16 19:21:45;;;;;;;5.68;3.33;;;;;;;19.09;53.62;96971.84;10534503;28;20048;-48
2022/05/16 19:27:06;;;;;;;3.03;2.45;;;;;;;19.10;54.53;96970.72;10523374;28;20065;-49
2022/05/16 19:32:26;;;;;;;4.90;2.70;;;;;;;19.10;54.12;96967.22;10522643;28;20397;-49
2022/05/16 19:37:46;;;;;;;3.95;2.50;;;;;;;19.11;54.68;96974.22;10512297;28;20063;-48
2022/05/16 19:43:06;;;;;;;6.15;2.67;;;;;;;19.06;58.48;96967.06;10539493;28;20407;-51
2022/05/16 19:48:26;;;;;;;5.78;2.80;;;;;;;19.01;60.37;96961.03;10517363;28;20052;-50
2022/05/16 19:53:47;;;;;;;5.65;3.35;;;;;;;18.93;62.41;96966.13;10513752;28;20040;-52
2022/05/16 19:59:07;;;;;;;6.38;3.28;;;;;;;18.88;62.48;96958.16;10508289;28;20542;-48
2022/05/16 20:04:27;;;;;;;4.93;3.42;;;;;;;18.87;62.39;96963.88;10495379;28;20482;-50
2022/05/16 20:09:47;;;;;;;4.70;3.22;;;;;;;18.86;62.92;96959.59;10503774;28;20568;-49
2022/05/16 20:15:06;;;;;;;7.88;4.38;;;;;;;18.81;63.78;96951.63;10509776;28;20047;-48
2022/05/16 20:20:26;;;;;;;5.57;4.13;;;;;;;18.76;63.78;96963.34;10533967;28;20070;-48
2022/05/16 20:25:46;;;;;;;5.57;3.90;;;;;;;18.75;63.61;96962.53;10502977;28;20044;-48
2022/05/16 20:31:08;;;;;;;5.32;3.95;;;;;;;18.73;63.83;96964.75;10548362;28;20125;-48
2022/05/16 20:36:28;;;;;;;4.88;3.60;;;;;;;18.72;64.12;96963.19;10537108;28;20051;-51
2022/05/16 22:03:56;;;;;;;4.85;2.50;;;;;;;18.88;59.59;96978.97;10212088;29;20128;-89
2022/05/16 22:09:34;;;;;;;3.08;2.47;;;;;;;18.87;59.24;96982.75;10240241;29;20059;-89
2022/05/16 22:15:07;;;;;;;4.32;2.70;;;;;;;18.87;59.17;96977.38;10225250;29;20063;-89
2022/05/16 22:20:42;;;;;;;4.03;2.60;;;;;;;18.87;58.53;96983.56;10213256;29;20082;-88
2022/05/16 22:26:12;;;;;;;3.63;2.70;;;;;;;18.88;58.44;96990.56;10190959;29;20428;-88
2022/05/16 22:31:50;;;;;;;2.80;2.60;;;;;;;18.87;58.07;96988.16;10178254;29;20052;-88
2022/05/16 22:37:18;;;;;;;4.25;2.45;;;;;;;18.87;57.82;96988.16;10203941;29;20086;-88
2022/05/16 22:43:03;;;;;;;3.38;2.75;;;;;;;18.87;57.87;96983.56;10209726;29;20048;-88
2022/05/16 22:48:31;;;;;;;2.67;2.42;;;;;;;18.88;57.68;96985.16;10190718;29;20555;-88
2022/05/16 22:53:59;;;;;;;2.40;2.15;;;;;;;18.88;57.49;96989.78;10177600;29;20059;-88
2022/05/16 22:59:22;;;;;;;2.40;2.20;;;;;;;18.89;57.38;96999.44;10193717;28;20071;-88
2022/05/16 23:04:47;;;;;;;2.58;2.38;;;;;;;18.90;57.48;96998.34;10191093;29;20114;-88
2022/05/16 23:10:12;;;;;;;2.30;2.10;;;;;;;18.90;57.11;97007.22;10192996;29;20059;-88
2022/05/16 23:15:35;;;;;;;2.78;2.45;;;;;;;18.91;56.98;97013.41;10163346;29;20087;-88
2022/05/16 23:21:01;;;;;;;2.40;2.20;;;;;;;18.90;56.92;97006.44;10180487;29;20397;-88
2022/05/16 23:26:27;;;;;;;2.35;2.15;;;;;;;18.89;56.82;97004.84;10219123;29;20495;-89
2022/05/16 23:31:53;;;;;;;3.00;2.50;;;;;;;18.89;56.74;97013.72;10192734;29;20056;-89
2022/05/16 23:37:24;;;;;;;2.45;2.22;;;;;;;18.90;56.63;97009.16;10180081;29;20056;-88
2022/05/16 23:42:57;;;;;;;2.47;2.15;;;;;;;18.89;56.56;96997.53;10194679;29;20091;-89
2022/05/16 23:48:31;;;;;;;2.88;2.10;;;;;;;18.90;56.63;96990.25;10192184;29;20055;-88
2022/05/16 23:54:05;;;;;;;2.30;2.10;;;;;;;18.89;56.53;96992.13;10217118;29;20143;-88
2022/05/16 23:59:29;;;;;;;2.30;2.10;;;;;;;18.92;56.41;96991.50;10190071;29;20094;-89
